Droitwich, United Kingdom
Current Conditions -  °F | °C
As of 1:20 AM on Thursday 27 Nov 2014 (Local Time) from EGBB Reporting Station
Drizzle Drizzle  
Wind Chill:   Ceiling: 100
Heat Index:   Visibility: 0.15mi
Dew Point:   Wind: 2mph
Humidity: 100%   Direction: 340°NNW
Pressure: 29.68"   Gusts: NA
Location:  52.27°N, 2.15°W
Report Text: EGBB 270120Z AUTO 34002KT 0250 DZ OVC001/// 07/07 Q1005 RERA
Loading
Personal Weather Stations






























Interactive Weather Map New forecast layout! Learn more

10-Day Weather Forecast

Advertisements
Track Severe Weather on mobile